createdAt,value
2022-09-23T00:01:28.567Z,2.28
2022-09-23T00:03:59.326Z,2.65
2022-09-23T00:06:31.146Z,3.92
2022-09-23T00:08:59.300Z,3.65
2022-09-23T00:11:28.569Z,2.83
2022-09-23T00:13:59.759Z,4.43
2022-09-23T00:16:33.492Z,3.05
2022-09-23T00:19:02.459Z,2.45
2022-09-23T00:21:30.738Z,3.00
2022-09-23T00:23:58.820Z,2.58
2022-09-23T00:26:27.773Z,2.67
2022-09-23T00:28:57.241Z,3.42
2022-09-23T00:31:27.386Z,2.58
2022-09-23T00:34:00.759Z,3.58
2022-09-23T00:36:30.068Z,2.70
2022-09-23T00:38:58.816Z,3.85
2022-09-23T00:41:27.808Z,2.60
2022-09-23T00:43:59.031Z,3.75
2022-09-23T00:46:41.228Z,3.00
2022-09-23T00:49:29.377Z,2.78
2022-09-23T00:52:10.671Z,3.72
2022-09-23T00:54:39.172Z,2.45
2022-09-23T00:57:08.033Z,2.40
2022-09-23T00:59:37.238Z,2.22
2022-09-23T01:02:06.197Z,2.60
2022-09-23T01:04:34.500Z,2.45
2022-09-23T01:07:03.677Z,3.10
2022-09-23T01:09:34.390Z,4.97
2022-09-23T01:12:31.387Z,2.33
2022-09-23T01:15:14.324Z,3.08
2022-09-23T01:17:58.728Z,2.60
2022-09-23T01:20:48.488Z,2.50
2022-09-23T01:24:08.527Z,2.33
2022-09-23T01:26:58.345Z,3.00
2022-09-23T01:30:13.291Z,3.20
2022-09-23T01:33:00.219Z,2.45
2022-09-23T01:35:58.998Z,2.40
2022-09-23T01:38:53.232Z,2.35
2022-09-23T01:42:02.727Z,2.58
2022-09-23T01:44:43.564Z,2.80
2022-09-23T01:47:18.586Z,2.78
2022-09-23T01:49:54.262Z,3.92
2022-09-23T01:52:47.342Z,3.47
2022-09-23T01:55:28.294Z,3.33
2022-09-23T01:58:08.545Z,2.85
2022-09-23T02:00:44.033Z,2.10
2022-09-23T02:03:19.416Z,2.17
2022-09-23T02:05:58.747Z,2.35
2022-09-23T02:08:42.970Z,2.75
2022-09-23T02:11:15.993Z,2.60
2022-09-23T02:13:56.161Z,2.10
2022-09-23T02:16:30.604Z,2.10
2022-09-23T02:19:10.402Z,2.42
2022-09-23T02:21:47.386Z,2.78
2022-09-23T02:24:22.403Z,2.58
2022-09-23T02:27:33.237Z,2.40
2022-09-23T02:30:18.919Z,5.60
2022-09-23T02:32:57.949Z,2.17
2022-09-23T02:39:02.397Z,2.22
2022-09-23T02:41:45.357Z,2.55
2022-09-23T02:44:18.317Z,2.33
2022-09-23T02:46:47.288Z,2.75
2022-09-23T02:49:27.223Z,2.40
2022-09-23T02:51:56.762Z,2.88
2022-09-23T02:54:28.892Z,3.40
2022-09-23T02:57:01.204Z,2.53
2022-09-23T02:59:31.639Z,3.05
2022-09-23T03:02:08.786Z,2.40
2022-09-23T03:05:18.410Z,2.40
2022-09-23T03:08:26.055Z,2.40
2022-09-23T03:11:08.646Z,3.10
2022-09-23T03:14:05.199Z,3.33
2022-09-23T03:16:51.333Z,4.03
2022-09-23T03:19:51.160Z,3.30
2022-09-23T03:22:36.010Z,3.40
2022-09-23T03:25:12.943Z,2.90
2022-09-23T03:27:43.489Z,2.90
2022-09-23T03:30:13.078Z,3.10
2022-09-23T03:32:47.051Z,4.78
2022-09-23T03:35:15.782Z,3.20
2022-09-23T03:38:16.342Z,3.33
2022-09-23T03:40:51.172Z,2.63
2022-09-23T03:43:19.853Z,2.42
2022-09-23T03:45:47.964Z,2.30
2022-09-23T03:48:16.565Z,2.28
2022-09-23T03:50:44.689Z,3.72
2022-09-23T03:53:13.807Z,4.68
2022-09-23T03:55:43.181Z,2.78
2022-09-23T03:58:12.298Z,3.65
2022-09-23T04:00:40.219Z,2.15
2022-09-23T04:03:11.775Z,2.22
2022-09-23T04:05:41.275Z,2.33
2022-09-23T04:08:11.992Z,2.10
2022-09-23T04:10:42.237Z,2.60
2022-09-23T04:13:11.232Z,2.58
2022-09-23T04:15:41.709Z,2.78
2022-09-23T04:18:10.553Z,4.07
2022-09-23T04:20:39.976Z,2.20
2022-09-23T04:23:09.072Z,4.53
2022-09-23T04:25:49.452Z,2.58
2022-09-23T04:28:18.778Z,2.47
2022-09-23T04:30:48.907Z,2.22
2022-09-23T04:33:17.726Z,2.50
2022-09-23T04:35:52.185Z,2.85
2022-09-23T04:38:20.054Z,2.90
2022-09-23T04:40:49.008Z,2.55
2022-09-23T04:43:17.671Z,2.95
2022-09-23T04:45:45.913Z,2.42
2022-09-23T04:48:14.323Z,5.50
2022-09-23T04:50:43.451Z,2.05
2022-09-23T04:53:14.261Z,2.95
2022-09-23T04:55:42.780Z,2.85
2022-09-23T04:58:11.650Z,2.65
2022-09-23T05:00:40.314Z,4.25
2022-09-23T05:03:08.513Z,2.63
2022-09-23T05:05:37.920Z,3.30
2022-09-23T05:08:06.285Z,3.90
2022-09-23T05:10:34.201Z,3.05
2022-09-23T05:13:02.385Z,3.17
2022-09-23T05:15:31.101Z,3.88
2022-09-23T05:18:00.120Z,4.63
2022-09-23T05:20:28.002Z,6.75
2022-09-23T05:22:57.482Z,4.97
2022-09-23T05:25:25.358Z,3.03
2022-09-23T05:27:53.593Z,3.00
2022-09-23T05:30:21.380Z,4.07
2022-09-23T05:32:49.557Z,3.80
2022-09-23T05:35:17.469Z,3.65
2022-09-23T05:37:45.360Z,2.85
2022-09-23T05:40:13.130Z,6.32
2022-09-23T05:42:41.218Z,2.25
2022-09-23T05:45:09.473Z,2.63
2022-09-23T05:47:38.617Z,2.90
2022-09-23T05:50:07.429Z,2.95
2022-09-23T05:52:36.976Z,4.95
2022-09-23T05:55:07.634Z,3.78
2022-09-23T05:57:36.694Z,11.45
2022-09-23T06:00:05.902Z,2.95
2022-09-23T06:02:39.968Z,6.22
2022-09-23T06:05:08.136Z,7.10
2022-09-23T06:07:36.093Z,2.80
2022-09-23T06:10:06.909Z,3.92
2022-09-23T06:12:36.100Z,2.90
2022-09-23T06:15:06.305Z,3.95
2022-09-23T06:17:34.027Z,3.42
2022-09-23T06:20:02.076Z,2.90
2022-09-23T06:22:30.085Z,3.53
2022-09-23T06:24:59.716Z,4.75
2022-09-23T06:27:27.540Z,6.00
2022-09-23T06:29:55.405Z,4.03
2022-09-23T06:32:24.073Z,5.13
2022-09-23T06:34:52.587Z,4.78
2022-09-23T06:37:21.014Z,5.10
2022-09-23T06:39:50.247Z,6.93
2022-09-23T06:42:18.251Z,7.18
2022-09-23T06:44:46.291Z,4.40
2022-09-23T06:47:14.345Z,5.22
2022-09-23T06:49:42.156Z,5.68
2022-09-23T06:52:09.833Z,7.13
2022-09-23T06:54:38.201Z,7.03
2022-09-23T06:57:06.063Z,5.07
2022-09-23T06:59:34.289Z,7.30
2022-09-23T07:02:03.463Z,5.30
2022-09-23T07:04:32.986Z,8.23
2022-09-23T07:07:01.036Z,5.30
2022-09-23T07:09:29.072Z,4.95
2022-09-23T07:11:57.212Z,6.18
2022-09-23T07:14:25.226Z,4.78
2022-09-23T07:16:54.122Z,6.72
2022-09-23T09:52:31.926Z,3.33
2022-09-23T09:55:29.197Z,3.42
2022-09-23T09:58:05.891Z,2.92
2022-09-23T10:00:45.666Z,2.65
2022-09-23T10:03:13.500Z,2.70
2022-09-23T10:05:45.205Z,3.13
2022-09-23T10:11:03.550Z,10.23
2022-09-23T10:13:34.714Z,4.45
2022-09-23T10:16:04.024Z,2.47
2022-09-23T10:18:41.358Z,3.60
2022-09-23T10:21:16.293Z,3.15
2022-09-23T10:23:48.337Z,2.30
2022-09-23T10:26:19.114Z,2.40
2022-09-23T10:28:52.417Z,2.95
2022-09-23T10:31:33.130Z,2.53
2022-09-23T10:34:29.527Z,5.07
2022-09-23T10:37:27.949Z,2.50
2022-09-23T10:40:14.464Z,2.92
2022-09-23T10:43:12.081Z,3.53
2022-09-23T10:46:08.709Z,2.45
2022-09-23T10:48:53.349Z,3.33
2022-09-23T10:51:39.609Z,4.20
2022-09-23T10:54:35.678Z,3.47
2022-09-23T10:57:40.719Z,2.65
2022-09-23T11:00:42.076Z,2.00
2022-09-23T11:03:43.252Z,2.03
2022-09-23T11:06:41.965Z,3.50
2022-09-23T11:10:00.259Z,1.90
2022-09-23T11:12:59.404Z,2.20
2022-09-23T11:15:54.780Z,2.25
2022-09-23T11:18:43.710Z,1.90
2022-09-23T11:21:55.379Z,5.20
2022-09-23T11:25:00.428Z,1.80
2022-09-23T11:27:58.507Z,2.08
2022-09-23T11:30:48.842Z,1.80
2022-09-23T11:33:41.509Z,1.85
2022-09-23T11:36:26.121Z,3.88
2022-09-23T11:38:57.185Z,1.65
2022-09-23T11:41:38.038Z,2.67
2022-09-23T11:47:01.701Z,3.78
2022-09-23T11:50:19.648Z,2.72
2022-09-23T11:53:01.440Z,1.60
2022-09-23T11:55:55.501Z,1.60
2022-09-23T11:58:32.688Z,1.70
2022-09-23T12:01:31.237Z,1.83
2022-09-23T12:04:21.127Z,2.08
2022-09-23T12:07:39.752Z,3.28
2022-09-23T12:10:11.255Z,1.73
2022-09-23T12:13:04.997Z,2.70
2022-09-23T12:16:28.867Z,1.60
2022-09-23T12:19:04.500Z,2.10
2022-09-23T12:22:28.967Z,1.42
2022-09-23T12:25:33.187Z,1.90
2022-09-23T12:28:12.137Z,1.40
2022-09-23T12:30:42.133Z,1.42
2022-09-23T12:33:34.790Z,3.22
2022-09-23T12:36:07.886Z,1.77
2022-09-23T12:38:40.594Z,1.80
2022-09-23T12:41:41.368Z,1.63
2022-09-23T12:44:14.998Z,1.25
2022-09-23T12:46:46.839Z,1.30
2022-09-23T12:49:37.583Z,2.65
2022-09-23T12:52:20.671Z,1.50
2022-09-23T12:54:50.525Z,1.85
2022-09-23T12:57:36.700Z,2.90
2022-09-23T13:00:12.823Z,1.75
2022-09-23T13:03:11.851Z,3.03
2022-09-23T13:06:11.333Z,1.20
2022-09-23T13:08:44.127Z,2.10
2022-09-23T13:11:31.914Z,2.38
2022-09-23T13:14:05.382Z,6.35
2022-09-23T13:16:43.883Z,2.30
2022-09-23T13:19:27.083Z,1.60
2022-09-23T13:22:04.048Z,1.58
2022-09-23T13:24:53.280Z,5.15
2022-09-23T13:27:32.942Z,1.30
2022-09-23T13:30:26.582Z,1.50
2022-09-23T13:34:00.640Z,4.68
2022-09-23T13:36:28.365Z,1.38
2022-09-23T13:39:22.476Z,1.70
2022-09-23T13:42:00.962Z,1.85
2022-09-23T13:44:31.451Z,1.83
2022-09-23T13:47:02.197Z,3.42
2022-09-23T13:49:37.022Z,4.03
2022-09-23T13:52:05.124Z,2.78
2022-09-23T13:54:52.641Z,1.90
2022-09-23T13:57:34.620Z,5.07
2022-09-23T14:00:19.491Z,3.92
2022-09-23T14:02:48.120Z,1.50
2022-09-23T14:05:26.493Z,3.15
2022-09-23T14:08:01.244Z,1.88
2022-09-23T14:10:29.032Z,1.67
2022-09-23T14:13:03.630Z,2.72
2022-09-23T14:15:37.310Z,2.63
2022-09-23T14:18:07.479Z,2.58
2022-09-23T14:20:50.382Z,2.92
2022-09-23T14:23:18.982Z,1.45
2022-09-23T14:25:48.354Z,1.98
2022-09-23T14:28:22.621Z,2.38
2022-09-23T14:30:57.254Z,1.73
2022-09-23T14:33:33.645Z,2.05
2022-09-23T14:36:38.876Z,2.38
2022-09-23T14:39:11.228Z,2.65
2022-09-23T14:41:44.293Z,3.85
2022-09-23T14:44:35.207Z,3.65
2022-09-23T14:47:04.899Z,1.75
2022-09-23T14:49:36.895Z,2.47
2022-09-23T14:52:06.929Z,2.10
2022-09-23T14:54:45.150Z,1.63
2022-09-23T14:57:22.155Z,2.28
2022-09-23T15:00:10.026Z,3.47
2022-09-23T15:02:42.839Z,4.50
2022-09-23T15:05:18.316Z,2.90
2022-09-23T15:07:57.843Z,3.55
2022-09-23T15:10:33.490Z,2.70
2022-09-23T15:13:15.454Z,1.40
2022-09-23T15:15:45.154Z,1.40
2022-09-23T15:18:27.095Z,1.50
2022-09-23T15:21:07.922Z,3.67
2022-09-23T15:23:41.680Z,2.92
2022-09-23T15:26:19.220Z,1.58
2022-09-23T15:28:48.988Z,1.70
2022-09-23T15:31:20.361Z,1.75
2022-09-23T15:33:51.058Z,1.60
2022-09-23T15:36:28.189Z,1.60
2022-09-23T15:39:12.102Z,3.40
2022-09-23T15:41:40.059Z,1.60
2022-09-23T15:44:21.857Z,3.72
2022-09-23T15:46:51.923Z,3.25
2022-09-23T15:49:39.123Z,2.65
2022-09-23T15:52:10.258Z,1.67
2022-09-23T15:54:38.428Z,7.57
2022-09-23T15:57:06.805Z,2.15
2022-09-23T15:59:35.503Z,2.85
2022-09-23T16:02:17.794Z,1.83
2022-09-23T16:04:49.046Z,3.60
2022-09-23T16:07:17.729Z,2.92
2022-09-23T16:09:46.104Z,2.50
2022-09-23T16:12:14.771Z,1.77
2022-09-23T16:14:43.322Z,1.73
2022-09-23T16:17:14.371Z,4.30
2022-09-23T16:19:42.147Z,1.90
2022-09-23T16:22:15.350Z,1.67
2022-09-23T16:24:43.266Z,2.47
2022-09-23T16:27:14.347Z,5.93
2022-09-23T16:29:42.192Z,2.60
2022-09-23T16:32:12.629Z,2.63
2022-09-23T16:34:40.543Z,2.42
2022-09-23T16:41:19.659Z,1.98
2022-09-23T16:43:48.361Z,2.92
2022-09-23T16:46:18.432Z,1.60
2022-09-23T16:48:52.315Z,2.03
2022-09-23T16:51:26.566Z,1.58
2022-09-23T16:53:56.774Z,2.88
2022-09-23T16:56:28.866Z,2.10
2022-09-23T16:58:57.437Z,1.90
2022-09-23T17:01:47.455Z,1.83
2022-09-23T17:04:18.318Z,2.10
2022-09-23T17:06:56.061Z,2.00
2022-09-23T17:09:28.803Z,1.73
2022-09-23T17:12:20.112Z,2.47
2022-09-23T17:14:48.215Z,2.15
2022-09-23T17:17:16.439Z,3.63
2022-09-23T17:19:44.503Z,2.45
2022-09-23T17:22:12.601Z,3.83
2022-09-23T17:24:40.835Z,2.65
2022-09-23T17:27:08.685Z,9.60
2022-09-23T17:29:36.666Z,3.92
2022-09-23T17:32:05.024Z,3.90
2022-09-23T17:34:33.544Z,4.38
2022-09-23T17:37:02.597Z,3.72
2022-09-23T17:39:31.693Z,4.90
2022-09-23T17:41:59.685Z,8.13
2022-09-23T17:44:27.701Z,4.38
2022-09-23T17:46:55.864Z,8.95
2022-09-23T17:49:24.725Z,10.50
2022-09-23T17:51:52.492Z,6.45
2022-09-23T17:54:20.518Z,6.97
2022-09-23T17:56:48.358Z,5.60
2022-09-23T17:59:16.449Z,5.68
2022-09-23T18:01:44.445Z,5.25
2022-09-23T18:04:12.180Z,5.68
2022-09-23T18:06:40.038Z,4.80
2022-09-23T18:09:11.118Z,6.47
2022-09-23T18:11:43.405Z,4.82
2022-09-23T18:14:22.918Z,5.57
2022-09-23T18:16:56.230Z,7.78
2022-09-23T18:19:24.842Z,11.52
2022-09-23T18:21:56.297Z,14.40
2022-09-23T18:27:01.675Z,11.80
2022-09-23T18:29:30.251Z,11.90
2022-09-23T18:31:59.256Z,11.30
2022-09-23T18:34:27.642Z,11.20
2022-09-23T18:36:56.306Z,11.50
2022-09-23T18:39:25.136Z,7.95
2022-09-23T18:41:53.231Z,7.85
2022-09-23T18:44:21.311Z,4.85
2022-09-23T18:46:49.136Z,4.38
2022-09-23T18:49:35.912Z,3.10
2022-09-23T18:52:03.662Z,3.22
2022-09-23T18:54:31.740Z,3.22
2022-09-23T18:57:01.529Z,3.78
2022-09-23T18:59:32.101Z,4.75
2022-09-23T19:02:00.125Z,5.30
2022-09-23T19:04:28.955Z,6.07
2022-09-23T19:06:57.889Z,8.25
2022-09-23T19:09:25.838Z,8.32
2022-09-23T19:11:53.934Z,5.90
2022-09-23T19:14:21.778Z,6.70
2022-09-23T19:16:50.665Z,11.85
2022-09-23T19:19:18.579Z,15.15
2022-09-23T19:21:46.555Z,8.75
2022-09-23T19:24:19.846Z,10.23
2022-09-23T19:26:48.783Z,7.75
2022-09-23T19:29:21.932Z,7.45
2022-09-23T19:31:51.231Z,6.10
2022-09-23T19:34:26.110Z,8.88
2022-09-23T19:37:00.040Z,6.80
2022-09-23T19:39:31.562Z,4.93
2022-09-23T19:41:59.820Z,6.38
2022-09-23T19:44:28.177Z,4.68
2022-09-23T19:46:57.449Z,5.00
2022-09-23T19:49:26.196Z,5.15
2022-09-23T19:51:56.198Z,6.10
2022-09-23T19:54:27.072Z,5.57
2022-09-23T19:56:55.524Z,4.28
2022-09-23T19:59:23.477Z,4.60
2022-09-23T20:01:51.332Z,7.47
2022-09-23T20:04:19.222Z,6.85
2022-09-23T20:06:47.973Z,7.85
2022-09-23T20:09:15.932Z,7.82
2022-09-23T20:11:44.327Z,7.68
2022-09-23T20:14:12.935Z,8.30
2022-09-23T20:16:40.839Z,5.90
2022-09-23T20:19:13.050Z,5.35
2022-09-23T20:21:40.968Z,8.13
2022-09-23T20:24:09.876Z,4.80
2022-09-23T20:26:58.128Z,4.78
2022-09-23T20:29:26.590Z,6.15
2022-09-23T20:31:57.135Z,4.22
2022-09-23T20:34:25.315Z,5.38
2022-09-23T20:36:53.454Z,4.82
2022-09-23T20:39:21.623Z,4.38
2022-09-23T20:41:50.546Z,6.38
2022-09-23T20:44:18.689Z,3.88
2022-09-23T20:46:48.994Z,5.07
2022-09-23T20:49:17.975Z,5.10
2022-09-23T20:51:49.239Z,5.60
2022-09-23T20:54:19.156Z,5.28
2022-09-23T20:56:48.869Z,7.10
2022-09-23T20:59:18.110Z,3.95
2022-09-23T21:01:47.635Z,6.40
2022-09-23T21:04:16.577Z,5.40
2022-09-23T21:06:44.684Z,5.03
2022-09-23T21:09:12.542Z,5.57
2022-09-23T21:11:40.865Z,5.55
2022-09-23T21:14:09.415Z,4.90
2022-09-23T21:16:37.598Z,4.75
2022-09-23T21:19:08.062Z,4.38
2022-09-23T21:21:36.948Z,6.18
2022-09-23T21:24:33.613Z,4.45
2022-09-23T21:26:53.644Z,4.13
2022-09-23T21:29:21.579Z,3.97
2022-09-23T21:31:49.834Z,4.30
2022-09-23T21:34:18.077Z,5.78
2022-09-23T21:36:48.556Z,4.40
2022-09-23T21:39:16.630Z,4.07
2022-09-23T21:41:44.410Z,3.85
2022-09-23T21:44:12.250Z,4.00
2022-09-23T21:46:40.658Z,4.15
2022-09-23T21:49:09.330Z,5.40
2022-09-23T21:51:42.799Z,5.95
2022-09-23T21:54:17.013Z,6.75
2022-09-23T21:56:45.090Z,4.57
2022-09-23T21:59:13.318Z,4.25
2022-09-23T22:01:45.248Z,5.38
2022-09-23T22:06:48.985Z,4.85
2022-09-23T22:09:20.455Z,5.55
2022-09-23T22:14:43.371Z,4.35
2022-09-23T22:17:14.649Z,4.03
2022-09-23T22:19:46.637Z,6.35
2022-09-23T22:22:18.036Z,3.75
2022-09-23T22:24:47.726Z,3.55
2022-09-23T22:27:19.566Z,4.30
2022-09-23T22:30:06.420Z,4.53
2022-09-23T22:32:40.543Z,3.60
2022-09-23T22:35:19.510Z,4.30
2022-09-23T22:37:47.967Z,4.00
2022-09-23T22:40:16.484Z,4.80
2022-09-23T22:42:44.784Z,4.32
2022-09-23T22:45:14.766Z,3.67
2022-09-23T22:47:45.547Z,4.10
2022-09-23T22:50:15.141Z,4.10
2022-09-23T22:52:43.471Z,4.70
2022-09-23T22:55:12.036Z,3.78
2022-09-23T22:57:40.009Z,5.07
2022-09-23T23:00:09.502Z,4.15
2022-09-23T23:02:37.425Z,3.60
2022-09-23T23:05:06.193Z,3.97
2022-09-23T23:07:35.100Z,3.88
2022-09-23T23:10:03.959Z,4.05
2022-09-23T23:12:33.504Z,4.20
2022-09-23T23:15:01.572Z,4.78
2022-09-23T23:17:29.904Z,4.50
2022-09-23T23:19:59.925Z,4.28
2022-09-23T23:22:28.491Z,5.82
2022-09-23T23:24:56.524Z,4.20
2022-09-23T23:27:24.376Z,4.85
2022-09-23T23:29:52.289Z,4.45
2022-09-23T23:32:20.039Z,4.72
2022-09-23T23:34:47.853Z,5.05
2022-09-23T23:37:20.064Z,4.38
2022-09-23T23:39:48.577Z,4.40
2022-09-23T23:42:16.358Z,8.20
2022-09-23T23:44:44.396Z,4.28
2022-09-23T23:47:12.617Z,6.10
2022-09-23T23:49:40.708Z,5.20
2022-09-23T23:52:08.727Z,4.60
2022-09-23T23:54:36.775Z,4.82
2022-09-23T23:57:04.689Z,4.57
2022-09-23T23:59:34.550Z,5.32
